sensor_id;sensor_type;location;lat;lon;timestamp;pressure;altitude;pressure_sealevel;temperature;humidity
17311;BME280;8773;43.300;0.394;2022-12-29T00:01:51;99865.84;;;11.30;55.57
17311;BME280;8773;43.300;0.394;2022-12-29T00:04:19;99854.13;;;11.14;56.36
17311;BME280;8773;43.300;0.394;2022-12-29T00:06:47;99872.19;;;11.29;55.72
17311;BME280;8773;43.300;0.394;2022-12-29T00:09:17;99866.41;;;11.41;55.92
17311;BME280;8773;43.300;0.394;2022-12-29T00:11:45;99867.75;;;11.45;55.54
17311;BME280;8773;43.300;0.394;2022-12-29T00:14:13;99855.38;;;11.52;54.99
17311;BME280;8773;43.300;0.394;2022-12-29T00:16:59;99865.59;;;11.57;54.99
17311;BME280;8773;43.300;0.394;2022-12-29T00:19:27;99850.66;;;11.46;55.38
17311;BME280;8773;43.300;0.394;2022-12-29T00:22:14;99852.50;;;11.46;55.31
17311;BME280;8773;43.300;0.394;2022-12-29T00:25:01;99844.81;;;11.43;55.11
17311;BME280;8773;43.300;0.394;2022-12-29T00:27:47;99854.69;;;11.42;55.39
17311;BME280;8773;43.300;0.394;2022-12-29T00:30:33;99853.84;;;11.42;55.73
17311;BME280;8773;43.300;0.394;2022-12-29T00:33:22;99839.09;;;11.38;54.66
17311;BME280;8773;43.300;0.394;2022-12-29T00:36:13;99846.16;;;11.47;55.35
17311;BME280;8773;43.300;0.394;2022-12-29T00:38:46;99845.16;;;11.56;55.03
17311;BME280;8773;43.300;0.394;2022-12-29T00:41:34;99849.16;;;11.44;55.00
17311;BME280;8773;43.300;0.394;2022-12-29T00:44:20;99848.81;;;11.47;54.79
17311;BME280;8773;43.300;0.394;2022-12-29T00:46:48;99839.44;;;11.51;54.88
17311;BME280;8773;43.300;0.394;2022-12-29T00:49:16;99834.09;;;11.51;54.96
17311;BME280;8773;43.300;0.394;2022-12-29T00:52:01;99826.91;;;11.51;55.34
17311;BME280;8773;43.300;0.394;2022-12-29T00:54:33;99820.53;;;11.52;54.86
17311;BME280;8773;43.300;0.394;2022-12-29T00:57:03;99818.19;;;11.49;55.39
17311;BME280;8773;43.300;0.394;2022-12-29T00:59:34;99827.06;;;11.50;55.39
17311;BME280;8773;43.300;0.394;2022-12-29T01:02:03;99817.97;;;11.27;55.45
17311;BME280;8773;43.300;0.394;2022-12-29T01:04:31;99826.84;;;11.19;56.00
17311;BME280;8773;43.300;0.394;2022-12-29T01:06:59;99807.38;;;10.93;56.84
17311;BME280;8773;43.300;0.394;2022-12-29T01:09:27;99823.94;;;10.88;56.73
17311;BME280;8773;43.300;0.394;2022-12-29T01:12:14;99827.56;;;10.71;57.93
17311;BME280;8773;43.300;0.394;2022-12-29T01:14:43;99813.53;;;10.77;57.53
17311;BME280;8773;43.300;0.394;2022-12-29T01:17:12;99815.34;;;10.76;58.32
17311;BME280;8773;43.300;0.394;2022-12-29T01:19:40;99806.69;;;10.74;57.50
17311;BME280;8773;43.300;0.394;2022-12-29T01:22:08;99792.44;;;10.66;57.98
17311;BME280;8773;43.300;0.394;2022-12-29T01:24:36;99803.53;;;10.87;57.91
17311;BME280;8773;43.300;0.394;2022-12-29T01:27:04;99806.22;;;10.95;57.18
17311;BME280;8773;43.300;0.394;2022-12-29T01:29:34;99805.34;;;10.78;58.12
17311;BME280;8773;43.300;0.394;2022-12-29T01:32:02;99799.50;;;10.75;58.02
17311;BME280;8773;43.300;0.394;2022-12-29T01:34:30;99810.59;;;10.46;58.66
17311;BME280;8773;43.300;0.394;2022-12-29T01:36:58;99809.75;;;10.45;59.11
17311;BME280;8773;43.300;0.394;2022-12-29T01:39:26;99819.16;;;10.58;59.27
17311;BME280;8773;43.300;0.394;2022-12-29T01:41:54;99823.47;;;10.50;58.63
17311;BME280;8773;43.300;0.394;2022-12-29T01:44:48;99822.31;;;10.53;59.01
17311;BME280;8773;43.300;0.394;2022-12-29T01:47:23;99815.13;;;10.53;58.91
17311;BME280;8773;43.300;0.394;2022-12-29T01:49:53;99819.47;;;10.54;58.54
17311;BME280;8773;43.300;0.394;2022-12-29T01:52:23;99816.78;;;10.46;59.57
17311;BME280;8773;43.300;0.394;2022-12-29T01:54:54;99824.63;;;10.48;59.37
17311;BME280;8773;43.300;0.394;2022-12-29T01:57:25;99826.25;;;10.33;60.37
17311;BME280;8773;43.300;0.394;2022-12-29T02:00:00;99815.78;;;10.13;59.56
17311;BME280;8773;43.300;0.394;2022-12-29T02:02:31;99829.53;;;10.01;60.20
17311;BME280;8773;43.300;0.394;2022-12-29T02:05:05;99827.63;;;10.11;60.91
17311;BME280;8773;43.300;0.394;2022-12-29T02:07:35;99823.66;;;9.97;60.92
17311;BME280;8773;43.300;0.394;2022-12-29T02:10:05;99819.25;;;10.06;60.32
17311;BME280;8773;43.300;0.394;2022-12-29T02:12:33;99820.97;;;10.15;59.96
17311;BME280;8773;43.300;0.394;2022-12-29T02:15:04;99828.94;;;10.07;60.49
17311;BME280;8773;43.300;0.394;2022-12-29T02:20:42;99827.53;;;10.03;61.53
17311;BME280;8773;43.300;0.394;2022-12-29T02:23:30;99816.81;;;9.95;60.48
17311;BME280;8773;43.300;0.394;2022-12-29T02:26:16;99819.16;;;9.98;61.41
17311;BME280;8773;43.300;0.394;2022-12-29T02:29:15;99822.88;;;10.05;60.02
17311;BME280;8773;43.300;0.394;2022-12-29T02:31:54;99815.94;;;10.12;60.30
17311;BME280;8773;43.300;0.394;2022-12-29T02:34:36;99814.13;;;9.95;61.68
17311;BME280;8773;43.300;0.394;2022-12-29T02:37:17;99803.81;;;9.74;62.09
17311;BME280;8773;43.300;0.394;2022-12-29T02:39:52;99816.63;;;9.88;60.65
17311;BME280;8773;43.300;0.394;2022-12-29T02:42:31;99819.59;;;9.85;60.79
17311;BME280;8773;43.300;0.394;2022-12-29T02:45:04;99819.94;;;9.90;60.84
17311;BME280;8773;43.300;0.394;2022-12-29T02:47:41;99825.81;;;9.94;61.17
17311;BME280;8773;43.300;0.394;2022-12-29T02:50:15;99816.09;;;9.84;61.47
17311;BME280;8773;43.300;0.394;2022-12-29T02:52:49;99822.69;;;9.72;62.05
17311;BME280;8773;43.300;0.394;2022-12-29T02:55:19;99825.66;;;9.69;61.38
17311;BME280;8773;43.300;0.394;2022-12-29T02:57:46;99827.41;;;9.78;61.74
17311;BME280;8773;43.300;0.394;2022-12-29T03:00:16;99832.13;;;9.84;61.42
17311;BME280;8773;43.300;0.394;2022-12-29T03:03:00;99821.00;;;9.71;61.13
17311;BME280;8773;43.300;0.394;2022-12-29T03:06:01;99831.84;;;9.70;61.75
17311;BME280;8773;43.300;0.394;2022-12-29T03:08:46;99818.13;;;9.65;62.09
17311;BME280;8773;43.300;0.394;2022-12-29T03:11:17;99824.66;;;9.70;61.43
17311;BME280;8773;43.300;0.394;2022-12-29T03:14:08;99830.41;;;9.58;62.15
17311;BME280;8773;43.300;0.394;2022-12-29T03:16:58;99825.22;;;9.56;62.19
17311;BME280;8773;43.300;0.394;2022-12-29T03:19:32;99826.97;;;9.65;62.60
17311;BME280;8773;43.300;0.394;2022-12-29T03:22:04;99830.41;;;9.58;62.79
17311;BME280;8773;43.300;0.394;2022-12-29T03:24:54;99830.28;;;9.41;62.66
17311;BME280;8773;43.300;0.394;2022-12-29T03:27:27;99824.84;;;9.51;62.20
17311;BME280;8773;43.300;0.394;2022-12-29T03:29:59;99820.66;;;9.48;62.18
17311;BME280;8773;43.300;0.394;2022-12-29T03:32:31;99821.31;;;9.50;61.92
17311;BME280;8773;43.300;0.394;2022-12-29T03:35:02;99826.28;;;9.63;62.20
17311;BME280;8773;43.300;0.394;2022-12-29T03:37:35;99823.44;;;9.65;62.58
17311;BME280;8773;43.300;0.394;2022-12-29T03:40:06;99818.50;;;9.70;62.52
17311;BME280;8773;43.300;0.394;2022-12-29T03:42:36;99826.09;;;9.82;61.70
17311;BME280;8773;43.300;0.394;2022-12-29T03:45:06;99815.44;;;9.90;62.06
17311;BME280;8773;43.300;0.394;2022-12-29T03:47:35;99828.22;;;10.05;60.55
17311;BME280;8773;43.300;0.394;2022-12-29T03:50:06;99817.63;;;10.13;60.83
17311;BME280;8773;43.300;0.394;2022-12-29T03:52:35;99822.88;;;10.05;61.29
17311;BME280;8773;43.300;0.394;2022-12-29T03:55:04;99816.34;;;10.25;61.03
17311;BME280;8773;43.300;0.394;2022-12-29T03:57:33;99817.00;;;10.19;60.05
17311;BME280;8773;43.300;0.394;2022-12-29T04:00:02;99817.03;;;10.27;60.23
17311;BME280;8773;43.300;0.394;2022-12-29T04:02:30;99811.53;;;10.29;60.06
17311;BME280;8773;43.300;0.394;2022-12-29T04:05:00;99823.06;;;10.37;60.24
17311;BME280;8773;43.300;0.394;2022-12-29T04:07:29;99819.41;;;10.38;60.43
17311;BME280;8773;43.300;0.394;2022-12-29T04:09:57;99813.09;;;10.47;60.01
17311;BME280;8773;43.300;0.394;2022-12-29T04:12:25;99811.59;;;10.45;59.49
17311;BME280;8773;43.300;0.394;2022-12-29T04:14:54;99812.47;;;10.53;59.44
17311;BME280;8773;43.300;0.394;2022-12-29T04:17:22;99814.66;;;10.58;59.20
17311;BME280;8773;43.300;0.394;2022-12-29T04:19:52;99815.50;;;10.59;58.86
17311;BME280;8773;43.300;0.394;2022-12-29T04:22:43;99820.47;;;10.53;59.40
17311;BME280;8773;43.300;0.394;2022-12-29T04:25:12;99815.66;;;10.57;58.88
17311;BME280;8773;43.300;0.394;2022-12-29T04:27:40;99813.47;;;10.52;60.20
17311;BME280;8773;43.300;0.394;2022-12-29T04:30:09;99809.09;;;10.51;59.34
17311;BME280;8773;43.300;0.394;2022-12-29T04:32:38;99816.09;;;10.44;59.71
17311;BME280;8773;43.300;0.394;2022-12-29T04:35:07;99816.44;;;10.49;60.11
17311;BME280;8773;43.300;0.394;2022-12-29T04:37:35;99815.06;;;10.37;60.04
17311;BME280;8773;43.300;0.394;2022-12-29T04:40:06;99803.66;;;10.27;59.66
17311;BME280;8773;43.300;0.394;2022-12-29T04:42:34;99809.03;;;10.35;60.23
17311;BME280;8773;43.300;0.394;2022-12-29T04:45:03;99809.72;;;10.37;59.49
17311;BME280;8773;43.300;0.394;2022-12-29T04:47:31;99801.34;;;10.32;59.99
17311;BME280;8773;43.300;0.394;2022-12-29T04:50:00;99798.31;;;10.27;59.40
17311;BME280;8773;43.300;0.394;2022-12-29T04:52:28;99802.66;;;10.28;59.71
17311;BME280;8773;43.300;0.394;2022-12-29T04:54:56;99808.84;;;10.29;59.65
17311;BME280;8773;43.300;0.394;2022-12-29T04:57:26;99809.00;;;10.27;60.05
17311;BME280;8773;43.300;0.394;2022-12-29T04:59:54;99809.84;;;10.28;60.00
17311;BME280;8773;43.300;0.394;2022-12-29T05:02:22;99808.66;;;10.22;60.01
17311;BME280;8773;43.300;0.394;2022-12-29T05:04:50;99815.97;;;9.94;60.32
17311;BME280;8773;43.300;0.394;2022-12-29T05:07:19;99812.75;;;9.90;60.91
17311;BME280;8773;43.300;0.394;2022-12-29T05:09:47;99816.56;;;9.80;61.63
17311;BME280;8773;43.300;0.394;2022-12-29T05:12:15;99820.69;;;9.74;61.29
17311;BME280;8773;43.300;0.394;2022-12-29T05:14:44;99821.25;;;9.60;62.38
17311;BME280;8773;43.300;0.394;2022-12-29T05:17:13;99829.09;;;9.62;61.53
17311;BME280;8773;43.300;0.394;2022-12-29T05:19:42;99818.03;;;9.56;61.95
17311;BME280;8773;43.300;0.394;2022-12-29T05:22:11;99828.19;;;9.53;62.10
17311;BME280;8773;43.300;0.394;2022-12-29T05:24:40;99826.31;;;9.45;61.90
17311;BME280;8773;43.300;0.394;2022-12-29T05:27:08;99823.72;;;9.36;62.76
17311;BME280;8773;43.300;0.394;2022-12-29T05:29:36;99818.69;;;9.33;62.60
17311;BME280;8773;43.300;0.394;2022-12-29T05:32:06;99832.88;;;9.33;62.69
17311;BME280;8773;43.300;0.394;2022-12-29T05:34:34;99831.13;;;9.42;62.92
17311;BME280;8773;43.300;0.394;2022-12-29T05:37:02;99834.00;;;9.48;62.14
17311;BME280;8773;43.300;0.394;2022-12-29T05:39:30;99819.63;;;9.41;61.95
17311;BME280;8773;43.300;0.394;2022-12-29T05:41:58;99829.84;;;9.46;62.58
17311;BME280;8773;43.300;0.394;2022-12-29T05:44:26;99849.19;;;9.48;62.13
17311;BME280;8773;43.300;0.394;2022-12-29T05:46:54;99832.84;;;9.51;61.54
17311;BME280;8773;43.300;0.394;2022-12-29T05:49:24;99843.03;;;9.30;62.65
17311;BME280;8773;43.300;0.394;2022-12-29T05:51:52;99836.41;;;9.34;62.68
17311;BME280;8773;43.300;0.394;2022-12-29T05:54:20;99832.72;;;9.35;62.78
17311;BME280;8773;43.300;0.394;2022-12-29T05:56:48;99829.28;;;9.25;62.80
17311;BME280;8773;43.300;0.394;2022-12-29T05:59:16;99827.16;;;9.28;62.50
17311;BME280;8773;43.300;0.394;2022-12-29T06:01:44;99836.53;;;9.32;62.73
17311;BME280;8773;43.300;0.394;2022-12-29T06:04:12;99829.91;;;9.18;63.41
17311;BME280;8773;43.300;0.394;2022-12-29T06:06:42;99841.34;;;9.11;63.70
17311;BME280;8773;43.300;0.394;2022-12-29T06:09:13;99841.94;;;9.22;62.36
17311;BME280;8773;43.300;0.394;2022-12-29T06:11:41;99838.91;;;9.17;62.67
17311;BME280;8773;43.300;0.394;2022-12-29T06:14:09;99848.28;;;9.21;62.94
17311;BME280;8773;43.300;0.394;2022-12-29T06:16:37;99832.25;;;9.04;62.63
17311;BME280;8773;43.300;0.394;2022-12-29T06:19:05;99843.47;;;9.07;62.66
17311;BME280;8773;43.300;0.394;2022-12-29T06:21:33;99847.06;;;8.71;64.50
17311;BME280;8773;43.300;0.394;2022-12-29T06:24:04;99842.72;;;8.70;64.18
17311;BME280;8773;43.300;0.394;2022-12-29T06:26:32;99842.06;;;8.58;65.32
17311;BME280;8773;43.300;0.394;2022-12-29T06:29:00;99858.13;;;8.76;65.15
17311;BME280;8773;43.300;0.394;2022-12-29T06:31:30;99853.16;;;8.91;64.86
17311;BME280;8773;43.300;0.394;2022-12-29T06:33:58;99863.22;;;9.14;63.95
17311;BME280;8773;43.300;0.394;2022-12-29T06:36:34;99869.78;;;9.20;63.76
17311;BME280;8773;43.300;0.394;2022-12-29T06:39:03;99863.25;;;9.32;63.25
17311;BME280;8773;43.300;0.394;2022-12-29T06:41:32;99852.41;;;9.34;63.21
17311;BME280;8773;43.300;0.394;2022-12-29T06:44:00;99873.97;;;9.58;62.47
17311;BME280;8773;43.300;0.394;2022-12-29T06:46:28;99864.53;;;9.46;62.91
17311;BME280;8773;43.300;0.394;2022-12-29T06:48:56;99874.81;;;9.59;62.50
17311;BME280;8773;43.300;0.394;2022-12-29T06:51:24;99880.53;;;9.64;62.49
17311;BME280;8773;43.300;0.394;2022-12-29T06:53:52;99880.16;;;9.76;61.84
17311;BME280;8773;43.300;0.394;2022-12-29T06:56:22;99874.50;;;9.62;62.09
17311;BME280;8773;43.300;0.394;2022-12-29T06:58:50;99886.34;;;9.59;63.07
17311;BME280;8773;43.300;0.394;2022-12-29T07:01:18;99900.84;;;9.74;62.84
17311;BME280;8773;43.300;0.394;2022-12-29T07:03:46;99899.16;;;9.73;62.62
17311;BME280;8773;43.300;0.394;2022-12-29T07:06:15;99895.19;;;9.77;61.47
17311;BME280;8773;43.300;0.394;2022-12-29T07:08:43;99899.91;;;9.83;61.36
17311;BME280;8773;43.300;0.394;2022-12-29T07:11:11;99892.53;;;9.60;62.57
17311;BME280;8773;43.300;0.394;2022-12-29T07:13:41;99884.22;;;9.45;62.42
17311;BME280;8773;43.300;0.394;2022-12-29T07:16:10;99888.63;;;9.54;61.94
17311;BME280;8773;43.300;0.394;2022-12-29T07:18:38;99868.03;;;9.46;63.44
17311;BME280;8773;43.300;0.394;2022-12-29T07:21:06;99885.50;;;9.59;62.76
17311;BME280;8773;43.300;0.394;2022-12-29T07:23:34;99861.53;;;9.49;62.38
17311;BME280;8773;43.300;0.394;2022-12-29T07:26:04;99874.28;;;9.55;63.44
17311;BME280;8773;43.300;0.394;2022-12-29T07:28:33;99867.88;;;9.66;62.68
17311;BME280;8773;43.300;0.394;2022-12-29T07:31:03;99871.38;;;9.66;62.98
17311;BME280;8773;43.300;0.394;2022-12-29T07:33:32;99832.16;;;9.49;62.33
17311;BME280;8773;43.300;0.394;2022-12-29T07:36:00;99859.00;;;9.65;62.62
17311;BME280;8773;43.300;0.394;2022-12-29T07:38:28;99853.53;;;9.49;63.13
17311;BME280;8773;43.300;0.394;2022-12-29T07:40:57;99843.09;;;9.20;63.99
17311;BME280;8773;43.300;0.394;2022-12-29T07:43:26;99846.16;;;9.25;64.04
17311;BME280;8773;43.300;0.394;2022-12-29T07:45:54;99827.91;;;9.20;63.50
17311;BME280;8773;43.300;0.394;2022-12-29T07:48:23;99833.34;;;9.29;63.53
17311;BME280;8773;43.300;0.394;2022-12-29T07:50:52;99835.56;;;9.33;63.84
17311;BME280;8773;43.300;0.394;2022-12-29T07:53:20;99834.88;;;9.31;63.65
17311;BME280;8773;43.300;0.394;2022-12-29T07:55:48;99835.31;;;9.09;63.19
17311;BME280;8773;43.300;0.394;2022-12-29T07:58:16;99829.13;;;9.08;64.20
17311;BME280;8773;43.300;0.394;2022-12-29T08:00:45;99837.91;;;9.01;64.46
17311;BME280;8773;43.300;0.394;2022-12-29T08:03:13;99853.94;;;9.18;63.47
17311;BME280;8773;43.300;0.394;2022-12-29T08:05:42;99856.97;;;9.23;63.28
17311;BME280;8773;43.300;0.394;2022-12-29T08:08:10;99857.72;;;9.16;63.65
17311;BME280;8773;43.300;0.394;2022-12-29T08:10:38;99832.13;;;9.23;63.32
17311;BME280;8773;43.300;0.394;2022-12-29T08:13:06;99856.00;;;9.25;63.34
17311;BME280;8773;43.300;0.394;2022-12-29T08:15:35;99854.78;;;9.37;63.59
17311;BME280;8773;43.300;0.394;2022-12-29T08:18:04;99859.72;;;9.49;63.02
17311;BME280;8773;43.300;0.394;2022-12-29T08:20:33;99858.81;;;9.41;62.46
17311;BME280;8773;43.300;0.394;2022-12-29T08:23:02;99857.34;;;9.46;62.70
17311;BME280;8773;43.300;0.394;2022-12-29T08:25:30;99860.25;;;9.53;62.88
17311;BME280;8773;43.300;0.394;2022-12-29T08:27:58;99846.97;;;9.61;62.04
17311;BME280;8773;43.300;0.394;2022-12-29T08:30:26;99840.06;;;9.76;62.13
17311;BME280;8773;43.300;0.394;2022-12-29T08:32:54;99838.09;;;9.78;61.71
17311;BME280;8773;43.300;0.394;2022-12-29T08:35:22;99830.00;;;9.96;60.98
17311;BME280;8773;43.300;0.394;2022-12-29T08:37:51;99829.00;;;10.15;60.69
17311;BME280;8773;43.300;0.394;2022-12-29T08:40:20;99842.78;;;10.36;60.88
17311;BME280;8773;43.300;0.394;2022-12-29T08:42:49;99839.19;;;10.53;60.06
17311;BME280;8773;43.300;0.394;2022-12-29T08:45:17;99830.53;;;10.60;59.48
17311;BME280;8773;43.300;0.394;2022-12-29T08:47:45;99831.94;;;10.72;58.45
17311;BME280;8773;43.300;0.394;2022-12-29T08:50:13;99828.31;;;10.97;58.55
17311;BME280;8773;43.300;0.394;2022-12-29T08:52:41;99835.38;;;11.31;57.99
17311;BME280;8773;43.300;0.394;2022-12-29T08:55:09;99831.94;;;11.63;57.03
17311;BME280;8773;43.300;0.394;2022-12-29T08:57:39;99830.03;;;11.96;56.01
17311;BME280;8773;43.300;0.394;2022-12-29T09:00:09;99835.31;;;12.28;55.61
17311;BME280;8773;43.300;0.394;2022-12-29T09:02:37;99838.25;;;12.58;54.82
17311;BME280;8773;43.300;0.394;2022-12-29T09:05:06;99842.50;;;12.83;54.44
17311;BME280;8773;43.300;0.394;2022-12-29T09:07:35;99841.22;;;13.02;53.80
17311;BME280;8773;43.300;0.394;2022-12-29T09:10:05;99837.91;;;13.23;53.46
17311;BME280;8773;43.300;0.394;2022-12-29T09:12:34;99843.16;;;13.39;52.97
17311;BME280;8773;43.300;0.394;2022-12-29T09:15:05;99845.78;;;13.47;52.38
17311;BME280;8773;43.300;0.394;2022-12-29T09:17:33;99845.06;;;13.53;52.24
17311;BME280;8773;43.300;0.394;2022-12-29T09:20:15;99849.94;;;13.58;52.98
17311;BME280;8773;43.300;0.394;2022-12-29T09:22:45;99860.03;;;13.56;52.06
17311;BME280;8773;43.300;0.394;2022-12-29T09:25:14;99861.53;;;13.50;52.48
17311;BME280;8773;43.300;0.394;2022-12-29T09:27:42;99863.56;;;13.48;52.60
17311;BME280;8773;43.300;0.394;2022-12-29T09:30:13;99860.72;;;13.49;51.92
17311;BME280;8773;43.300;0.394;2022-12-29T09:32:41;99875.13;;;13.57;52.09
17311;BME280;8773;43.300;0.394;2022-12-29T09:35:12;99865.03;;;13.59;52.26
17311;BME280;8773;43.300;0.394;2022-12-29T09:37:40;99894.19;;;13.70;51.94
17311;BME280;8773;43.300;0.394;2022-12-29T09:40:23;99884.09;;;13.72;52.21
17311;BME280;8773;43.300;0.394;2022-12-29T09:43:03;99894.78;;;13.80;51.00
17311;BME280;8773;43.300;0.394;2022-12-29T09:45:40;99892.66;;;13.75;51.26
17311;BME280;8773;43.300;0.394;2022-12-29T09:48:15;99887.63;;;13.72;50.88
17311;BME280;8773;43.300;0.394;2022-12-29T09:50:47;99887.75;;;13.56;51.11
17311;BME280;8773;43.300;0.394;2022-12-29T09:53:22;99890.31;;;13.72;51.57
17311;BME280;8773;43.300;0.394;2022-12-29T09:55:56;99893.56;;;13.82;51.42
17311;BME280;8773;43.300;0.394;2022-12-29T09:58:29;99896.19;;;13.91;50.93
17311;BME280;8773;43.300;0.394;2022-12-29T10:01:04;99904.03;;;14.00;50.33
17311;BME280;8773;43.300;0.394;2022-12-29T10:03:50;99904.19;;;13.99;50.63
17311;BME280;8773;43.300;0.394;2022-12-29T10:06:23;99892.25;;;14.01;51.29
17311;BME280;8773;43.300;0.394;2022-12-29T10:08:57;99896.06;;;14.07;50.98
17311;BME280;8773;43.300;0.394;2022-12-29T10:11:35;99886.63;;;14.11;51.02
17311;BME280;8773;43.300;0.394;2022-12-29T10:14:21;99889.66;;;14.08;51.15
17311;BME280;8773;43.300;0.394;2022-12-29T10:17:02;99898.22;;;14.11;51.67
17311;BME280;8773;43.300;0.394;2022-12-29T10:19:51;99896.66;;;14.17;51.71
17311;BME280;8773;43.300;0.394;2022-12-29T10:22:38;99880.13;;;14.20;51.13
17311;BME280;8773;43.300;0.394;2022-12-29T10:25:12;99885.03;;;14.31;52.05
17311;BME280;8773;43.300;0.394;2022-12-29T10:27:42;99881.63;;;14.37;51.48
17311;BME280;8773;43.300;0.394;2022-12-29T10:30:12;99888.97;;;14.43;50.88
17311;BME280;8773;43.300;0.394;2022-12-29T10:32:45;99888.59;;;14.46;51.36
17311;BME280;8773;43.300;0.394;2022-12-29T10:35:19;99886.53;;;14.34;50.56
17311;BME280;8773;43.300;0.394;2022-12-29T10:37:53;99877.34;;;14.28;51.64
17311;BME280;8773;43.300;0.394;2022-12-29T10:40:28;99880.13;;;14.20;50.84
17311;BME280;8773;43.300;0.394;2022-12-29T10:43:18;99864.19;;;14.18;50.67
17311;BME280;8773;43.300;0.394;2022-12-29T10:45:48;99866.88;;;14.18;52.00
17311;BME280;8773;43.300;0.394;2022-12-29T10:48:20;99870.72;;;14.01;51.58
17311;BME280;8773;43.300;0.394;2022-12-29T10:50:58;99861.25;;;13.91;51.65
17311;BME280;8773;43.300;0.394;2022-12-29T10:53:34;99869.81;;;14.09;52.15
17311;BME280;8773;43.300;0.394;2022-12-29T10:56:20;99855.16;;;14.26;51.71
17311;BME280;8773;43.300;0.394;2022-12-29T10:58:50;99848.69;;;14.50;52.11
17311;BME280;8773;43.300;0.394;2022-12-29T11:01:19;99820.94;;;14.64;51.82
17311;BME280;8773;43.300;0.394;2022-12-29T11:04:02;99824.50;;;15.01;52.02
17311;BME280;8773;43.300;0.394;2022-12-29T11:06:31;99827.56;;;15.19;51.44
17311;BME280;8773;43.300;0.394;2022-12-29T11:09:02;99829.25;;;15.41;49.60
17311;BME280;8773;43.300;0.394;2022-12-29T11:11:37;99810.25;;;15.49;49.21
17311;BME280;8773;43.300;0.394;2022-12-29T11:14:12;99811.81;;;15.59;48.95
17311;BME280;8773;43.300;0.394;2022-12-29T11:16:41;99805.25;;;15.68;48.38
17311;BME280;8773;43.300;0.394;2022-12-29T11:19:22;99805.00;;;15.41;48.04
17311;BME280;8773;43.300;0.394;2022-12-29T11:21:52;99802.75;;;15.24;48.99
17311;BME280;8773;43.300;0.394;2022-12-29T11:24:22;99801.97;;;15.30;49.52
17311;BME280;8773;43.300;0.394;2022-12-29T11:26:52;99813.91;;;15.42;49.42
17311;BME280;8773;43.300;0.394;2022-12-29T11:29:26;99803.91;;;15.36;48.69
17311;BME280;8773;43.300;0.394;2022-12-29T11:31:55;99797.81;;;15.48;48.81
17311;BME280;8773;43.300;0.394;2022-12-29T11:34:31;99791.91;;;15.60;48.63
17311;BME280;8773;43.300;0.394;2022-12-29T11:37:03;99788.38;;;15.59;48.44
17311;BME280;8773;43.300;0.394;2022-12-29T11:39:37;99781.63;;;15.70;48.98
17311;BME280;8773;43.300;0.394;2022-12-29T11:42:14;99730.88;;;15.52;48.81
17311;BME280;8773;43.300;0.394;2022-12-29T11:44:44;99786.38;;;15.96;48.99
17311;BME280;8773;43.300;0.394;2022-12-29T11:47:22;99785.09;;;15.92;48.35
17311;BME280;8773;43.300;0.394;2022-12-29T11:49:54;99785.19;;;16.05;48.42
17311;BME280;8773;43.300;0.394;2022-12-29T11:52:25;99777.28;;;16.03;48.69
17311;BME280;8773;43.300;0.394;2022-12-29T11:54:55;99765.09;;;16.14;48.88
17311;BME280;8773;43.300;0.394;2022-12-29T11:57:25;99772.75;;;16.10;48.25
17311;BME280;8773;43.300;0.394;2022-12-29T11:59:54;99770.06;;;16.10;48.78
17311;BME280;8773;43.300;0.394;2022-12-29T12:02:48;99764.38;;;16.33;48.42
17311;BME280;8773;43.300;0.394;2022-12-29T12:05:28;99762.09;;;16.30;48.53
17311;BME280;8773;43.300;0.394;2022-12-29T12:08:03;99757.88;;;16.21;48.59
17311;BME280;8773;43.300;0.394;2022-12-29T12:10:37;99755.47;;;16.39;48.84
17311;BME280;8773;43.300;0.394;2022-12-29T12:13:18;99725.13;;;16.31;48.74
17311;BME280;8773;43.300;0.394;2022-12-29T12:15:52;99759.75;;;16.62;48.75
17311;BME280;8773;43.300;0.394;2022-12-29T12:18:30;99753.50;;;16.61;48.08
17311;BME280;8773;43.300;0.394;2022-12-29T12:21:08;99744.38;;;16.62;48.38
17311;BME280;8773;43.300;0.394;2022-12-29T12:23:47;99738.13;;;16.62;47.33
17311;BME280;8773;43.300;0.394;2022-12-29T12:26:28;99749.94;;;16.54;46.83
17311;BME280;8773;43.300;0.394;2022-12-29T12:28:59;99745.09;;;16.36;47.47
17311;BME280;8773;43.300;0.394;2022-12-29T12:31:43;99748.25;;;16.46;48.02
17311;BME280;8773;43.300;0.394;2022-12-29T12:34:18;99745.72;;;16.38;47.18
17311;BME280;8773;43.300;0.394;2022-12-29T12:36:58;99743.88;;;16.45;47.39
17311;BME280;8773;43.300;0.394;2022-12-29T12:39:34;99738.34;;;16.60;47.32
17311;BME280;8773;43.300;0.394;2022-12-29T12:42:18;99730.44;;;16.59;47.17
17311;BME280;8773;43.300;0.394;2022-12-29T12:44:59;99725.25;;;16.64;47.21
17311;BME280;8773;43.300;0.394;2022-12-29T12:47:45;99710.13;;;16.76;46.72
17311;BME280;8773;43.300;0.394;2022-12-29T12:50:42;99714.50;;;16.90;46.34
17311;BME280;8773;43.300;0.394;2022-12-29T12:53:29;99709.53;;;17.00;46.07
17311;BME280;8773;43.300;0.394;2022-12-29T12:56:10;99708.94;;;17.11;45.38
17311;BME280;8773;43.300;0.394;2022-12-29T12:58:51;99707.91;;;17.19;45.11
17311;BME280;8773;43.300;0.394;2022-12-29T13:01:32;99700.81;;;17.11;45.25
17311;BME280;8773;43.300;0.394;2022-12-29T13:07:08;99700.44;;;17.28;44.73
17311;BME280;8773;43.300;0.394;2022-12-29T13:09:54;99689.41;;;17.36;44.71
17311;BME280;8773;43.300;0.394;2022-12-29T13:12:36;99677.53;;;17.04;44.12
17311;BME280;8773;43.300;0.394;2022-12-29T13:15:17;99627.22;;;16.70;44.97
17311;BME280;8773;43.300;0.394;2022-12-29T13:17:55;99688.34;;;16.97;44.95
17311;BME280;8773;43.300;0.394;2022-12-29T13:20:32;99695.63;;;17.10;44.89
17311;BME280;8773;43.300;0.394;2022-12-29T13:23:08;99692.09;;;17.23;44.31
17311;BME280;8773;43.300;0.394;2022-12-29T13:25:44;99697.50;;;17.23;43.94
17311;BME280;8773;43.300;0.394;2022-12-29T13:28:21;99697.28;;;17.11;43.43
17311;BME280;8773;43.300;0.394;2022-12-29T13:30:57;99707.25;;;16.97;44.37
17311;BME280;8773;43.300;0.394;2022-12-29T13:33:37;99697.66;;;16.88;44.37
17311;BME280;8773;43.300;0.394;2022-12-29T13:36:17;99708.25;;;16.83;44.53
17311;BME280;8773;43.300;0.394;2022-12-29T13:38:50;99716.34;;;16.70;44.62
17311;BME280;8773;43.300;0.394;2022-12-29T13:41:27;99713.53;;;16.37;45.86
17311;BME280;8773;43.300;0.394;2022-12-29T13:43:57;99711.03;;;16.35;45.52
17311;BME280;8773;43.300;0.394;2022-12-29T13:46:31;99711.44;;;16.32;45.08
17311;BME280;8773;43.300;0.394;2022-12-29T13:49:04;99709.75;;;16.31;45.25
17311;BME280;8773;43.300;0.394;2022-12-29T13:51:38;99703.97;;;16.00;48.25